Time;durP1;ratioP1;P1;durP2;ratioP2;P2;SDS_P1;SDS_P2;PMS_P1;PMS_P2;Temp;Humidity;BMP_temperature;BMP_pressure;BME280_temperature;BME280_humidity;BME280_pressure;Samples;Min_cycle;Max_cycle;Signal;HPM_P1;HPM_P2
2023/05/29 00:02:00;;;;;;;;;;;17.60;67.50;;;;;;5011193;28;87355;-44
2023/05/29 00:04:26;;;;;;;;;;;17.60;67.50;;;;;;5013797;28;87144;-44
2023/05/29 00:06:52;;;;;;;;;;;17.60;67.60;;;;;;5013783;28;87040;-44
2023/05/29 00:09:17;;;;;;;;;;;17.60;67.60;;;;;;5009664;28;88288;-44
2023/05/29 00:11:43;;;;;;;;;;;17.60;67.60;;;;;;5017180;28;87118;-44
2023/05/29 00:14:12;;;;;;;;;;;17.60;67.70;;;;;;5012300;28;88048;-44
2023/05/29 00:16:38;;;;;;;;;;;17.60;67.60;;;;;;5011230;28;87199;-44
2023/05/29 00:19:03;;;;;;;;;;;17.60;67.70;;;;;;5013914;28;87680;-44
2023/05/29 00:21:29;;;;;;;;;;;17.60;67.80;;;;;;5012732;28;88262;-45
2023/05/29 00:23:54;;;;;;;;;;;17.50;67.60;;;;;;5010942;28;88323;-45
2023/05/29 00:26:20;;;;;;;;;;;17.50;67.70;;;;;;5014742;28;86843;-43
2023/05/29 00:28:46;;;;;;;;;;;17.50;67.80;;;;;;5011825;28;89240;-44
2023/05/29 00:31:11;;;;;;;;;;;17.50;67.70;;;;;;5012165;28;86925;-44
2023/05/29 00:33:37;;;;;;;;;;;17.50;67.80;;;;;;5016186;28;88349;-44
2023/05/29 00:36:03;;;;;;;;;;;17.50;67.80;;;;;;5011688;28;87246;-44
2023/05/29 00:38:28;;;;;;;;;;;17.50;67.80;;;;;;5013408;28;87277;-44
2023/05/29 00:40:54;;;;;;;;;;;17.50;67.70;;;;;;5010390;28;88268;-44
2023/05/29 00:43:20;;;;;;;;;;;17.50;67.80;;;;;;5014064;28;87180;-45
2023/05/29 00:45:45;;;;;;;;;;;17.50;67.70;;;;;;5012152;28;87265;-44
2023/05/29 00:48:11;;;;;;;;;;;17.50;67.70;;;;;;5011275;28;88194;-44
2023/05/29 00:50:36;;;;;;;;;;;17.50;67.60;;;;;;5014294;28;86494;-44
2023/05/29 00:53:04;;;;;;;;;;;17.50;67.70;;;;;;5011636;28;87014;-44
2023/05/29 00:55:30;;;;;;;;;;;17.50;67.70;;;;;;5015261;28;89363;-44
2023/05/29 00:57:55;;;;;;;;;;;17.40;67.70;;;;;;5013109;28;87939;-44
2023/05/29 01:00:21;;;;;;;;;;;17.40;67.70;;;;;;5010322;28;89472;-44
2023/05/29 01:02:48;;;;;;;;;;;17.40;68.30;;;;;;5012196;28;87086;-44
2023/05/29 01:05:14;;;;;;;;;;;17.40;67.60;;;;;;5013776;28;87359;-43
2023/05/29 01:07:42;;;;;;;;;;;17.40;67.70;;;;;;5010972;28;89024;-44
2023/05/29 01:10:09;;;;;;;;;;;17.40;67.70;;;;;;5013958;28;87093;-44
2023/05/29 01:12:38;;;;;;;;;;;17.40;67.70;;;;;;5010155;28;87019;-45
2023/05/29 01:15:22;;;;;;;;;;;17.40;67.70;;;;;;5013054;28;86526;-44
2023/05/29 01:17:51;;;;;;;;;;;17.40;67.60;;;;;;5014084;28;87125;-44
2023/05/29 01:20:20;;;;;;;;;;;17.40;68.20;;;;;;5011058;28;87909;-44
2023/05/29 01:23:06;;;;;;;;;;;17.40;67.70;;;;;;5013068;28;88396;-44
2023/05/29 01:25:50;;;;;;;;;;;17.40;68.30;;;;;;5013402;28;88395;-45
2023/05/29 01:28:15;;;;;;;;;;;17.40;67.70;;;;;;5013118;28;87296;-44
2023/05/29 01:30:42;;;;;;;;;;;17.40;67.70;;;;;;5012484;28;87147;-45
2023/05/29 01:33:08;;;;;;;;;;;17.40;67.70;;;;;;5014950;28;87317;-45
2023/05/29 01:35:33;;;;;;;;;;;17.30;67.60;;;;;;5016444;28;87938;-45
2023/05/29 01:37:59;;;;;;;;;;;17.30;67.70;;;;;;5014512;28;87130;-44
2023/05/29 01:40:24;;;;;;;;;;;17.40;67.70;;;;;;5019801;28;87343;-44
2023/05/29 01:42:50;;;;;;;;;;;17.30;67.60;;;;;;5014140;28;87175;-44
2023/05/29 01:45:16;;;;;;;;;;;17.30;67.70;;;;;;5016789;28;87540;-44
2023/05/29 01:47:42;;;;;;;;;;;17.30;67.70;;;;;;5014138;28;88344;-44
2023/05/29 01:50:08;;;;;;;;;;;17.30;67.70;;;;;;5014495;28;87178;-45
2023/05/29 01:52:35;;;;;;;;;;;17.30;67.80;;;;;;5016211;28;87007;-45
2023/05/29 01:55:00;;;;;;;;;;;17.30;67.80;;;;;;5014852;28;88067;-44
2023/05/29 01:57:26;;;;;;;;;;;17.30;67.70;;;;;;5015790;28;87228;-44
2023/05/29 01:59:52;;;;;;;;;;;17.30;67.70;;;;;;5016108;28;87127;-45
2023/05/29 02:02:17;;;;;;;;;;;17.30;67.70;;;;;;5016241;28;87099;-44
2023/05/29 02:04:43;;;;;;;;;;;17.30;67.80;;;;;;5015869;28;87391;-44
2023/05/29 02:07:08;;;;;;;;;;;17.30;67.70;;;;;;5013226;28;89469;-44
2023/05/29 02:09:35;;;;;;;;;;;17.30;67.70;;;;;;5016267;28;87262;-44
2023/05/29 02:12:01;;;;;;;;;;;17.20;67.70;;;;;;5013803;28;87918;-44
2023/05/29 02:14:27;;;;;;;;;;;17.20;67.80;;;;;;5014904;28;89788;-43
2023/05/29 02:16:52;;;;;;;;;;;17.20;67.70;;;;;;5013316;28;87682;-45
2023/05/29 02:19:18;;;;;;;;;;;17.20;67.70;;;;;;5015463;28;87609;-44
2023/05/29 02:21:44;;;;;;;;;;;17.20;67.80;;;;;;5017824;28;88333;-44
2023/05/29 02:24:09;;;;;;;;;;;17.20;67.80;;;;;;5013140;28;87439;-44
2023/05/29 02:26:38;;;;;;;;;;;17.20;67.70;;;;;;5016850;28;88144;-44
2023/05/29 02:29:05;;;;;;;;;;;17.20;67.70;;;;;;5015346;28;86337;-43
2023/05/29 02:31:31;;;;;;;;;;;17.20;67.80;;;;;;5013268;28;87133;-44
2023/05/29 02:33:56;;;;;;;;;;;17.10;67.70;;;;;;5015132;28;88245;-43
2023/05/29 02:36:22;;;;;;;;;;;17.10;67.70;;;;;;5014128;28;88075;-44
2023/05/29 02:38:47;;;;;;;;;;;17.10;67.80;;;;;;5013088;28;88353;-44
2023/05/29 02:41:13;;;;;;;;;;;17.10;67.80;;;;;;5015783;28;88260;-44
2023/05/29 02:43:38;;;;;;;;;;;17.10;67.80;;;;;;5016517;28;87056;-44
2023/05/29 02:46:04;;;;;;;;;;;17.10;67.70;;;;;;5014789;28;88104;-44
2023/05/29 02:48:30;;;;;;;;;;;17.10;67.70;;;;;;5012797;28;87179;-43
2023/05/29 02:50:55;;;;;;;;;;;17.10;67.70;;;;;;5015311;28;87055;-44
2023/05/29 02:53:21;;;;;;;;;;;17.10;67.70;;;;;;5014745;28;86681;-44
2023/05/29 02:55:48;;;;;;;;;;;17.10;67.90;;;;;;5016226;28;87317;-44
2023/05/29 02:58:13;;;;;;;;;;;17.10;67.80;;;;;;5012890;28;87120;-44
2023/05/29 03:00:39;;;;;;;;;;;17.10;67.80;;;;;;5013437;28;88372;-44
2023/05/29 03:03:05;;;;;;;;;;;17.10;67.80;;;;;;5015052;28;87611;-44
2023/05/29 03:05:30;;;;;;;;;;;17.10;67.70;;;;;;5015791;28;87398;-44
2023/05/29 03:07:56;;;;;;;;;;;17.10;67.80;;;;;;5007199;28;87550;-44
2023/05/29 03:10:22;;;;;;;;;;;17.10;67.80;;;;;;5012438;28;87423;-44
2023/05/29 03:12:47;;;;;;;;;;;17.00;67.70;;;;;;5010744;28;87964;-44
2023/05/29 03:15:13;;;;;;;;;;;17.00;67.80;;;;;;4996936;28;87265;-44
2023/05/29 03:17:38;;;;;;;;;;;17.00;67.70;;;;;;5013418;28;87148;-45
2023/05/29 03:20:07;;;;;;;;;;;17.00;67.80;;;;;;5012481;28;89413;-44
2023/05/29 03:22:34;;;;;;;;;;;17.00;67.90;;;;;;5012437;28;87412;-44
2023/05/29 03:24:59;;;;;;;;;;;17.00;67.80;;;;;;5013422;28;88063;-44
2023/05/29 03:27:25;;;;;;;;;;;17.00;67.80;;;;;;5013107;28;88097;-44
2023/05/29 03:29:52;;;;;;;;;;;17.00;67.80;;;;;;5011115;28;87378;-45
2023/05/29 03:32:18;;;;;;;;;;;17.00;67.80;;;;;;5010793;28;87214;-44
2023/05/29 03:34:43;;;;;;;;;;;17.00;67.80;;;;;;5013819;28;87107;-44
2023/05/29 03:37:09;;;;;;;;;;;17.00;67.80;;;;;;5014870;28;87562;-44
2023/05/29 03:39:34;;;;;;;;;;;17.00;67.80;;;;;;5013413;28;87671;-44
2023/05/29 03:42:00;;;;;;;;;;;17.00;67.80;;;;;;5013511;28;86415;-44
2023/05/29 03:44:25;;;;;;;;;;;16.90;67.80;;;;;;5012744;28;87059;-45
2023/05/29 03:46:51;;;;;;;;;;;17.00;67.80;;;;;;5009251;28;88249;-44
2023/05/29 03:49:16;;;;;;;;;;;17.00;67.90;;;;;;5015390;28;87989;-45
2023/05/29 03:51:42;;;;;;;;;;;17.00;67.80;;;;;;5010661;28;87303;-44
2023/05/29 03:54:08;;;;;;;;;;;16.90;67.80;;;;;;5012824;28;87230;-44
2023/05/29 03:56:35;;;;;;;;;;;16.90;67.80;;;;;;5016806;28;87692;-44
2023/05/29 03:59:00;;;;;;;;;;;16.90;67.90;;;;;;5009970;28;87157;-44
2023/05/29 04:01:26;;;;;;;;;;;16.90;67.90;;;;;;5014755;28;87109;-44
2023/05/29 04:03:53;;;;;;;;;;;16.90;68.00;;;;;;5010733;28;87422;-44
2023/05/29 04:06:18;;;;;;;;;;;16.90;68.00;;;;;;5011962;28;87241;-44
2023/05/29 04:08:44;;;;;;;;;;;16.80;68.00;;;;;;5018956;28;87877;-43
2023/05/29 04:11:11;;;;;;;;;;;16.90;67.90;;;;;;5011431;28;88166;-44
2023/05/29 04:13:37;;;;;;;;;;;16.90;67.90;;;;;;5012273;28;88186;-44
2023/05/29 04:16:03;;;;;;;;;;;16.90;67.90;;;;;;5011438;28;88390;-44
2023/05/29 04:18:29;;;;;;;;;;;16.90;67.80;;;;;;5009496;28;88080;-45
2023/05/29 04:20:54;;;;;;;;;;;16.90;67.90;;;;;;5012773;28;87509;-44
2023/05/29 04:23:20;;;;;;;;;;;16.80;67.90;;;;;;5009909;28;87840;-45
2023/05/29 04:25:46;;;;;;;;;;;16.90;67.90;;;;;;5011772;28;87778;-45
2023/05/29 04:28:11;;;;;;;;;;;16.90;67.80;;;;;;5011395;28;87032;-45
2023/05/29 04:30:38;;;;;;;;;;;16.90;67.80;;;;;;5016080;28;86567;-44
2023/05/29 04:33:04;;;;;;;;;;;16.90;67.80;;;;;;5012435;28;88917;-44
2023/05/29 04:35:30;;;;;;;;;;;16.90;67.90;;;;;;5008567;28;88842;-44
2023/05/29 04:37:56;;;;;;;;;;;16.90;67.80;;;;;;5013744;28;89199;-44
2023/05/29 04:40:22;;;;;;;;;;;16.90;67.80;;;;;;5011570;28;87005;-45
2023/05/29 04:42:47;;;;;;;;;;;16.90;67.70;;;;;;5013720;28;87354;-44
2023/05/29 04:45:13;;;;;;;;;;;16.90;67.80;;;;;;5009366;28;88284;-45
2023/05/29 04:47:43;;;;;;;;;;;16.80;67.80;;;;;;5010824;28;87115;-44
2023/05/29 04:50:17;;;;;;;;;;;16.90;67.80;;;;;;5010844;28;87385;-44
2023/05/29 04:52:43;;;;;;;;;;;16.90;67.80;;;;;;5013301;28;89663;-44
2023/05/29 04:55:10;;;;;;;;;;;16.90;67.90;;;;;;5013972;28;86657;-45
2023/05/29 04:57:35;;;;;;;;;;;16.90;67.90;;;;;;5012333;28;88080;-44
2023/05/29 05:00:05;;;;;;;;;;;16.80;67.90;;;;;;5014169;28;87073;-46
2023/05/29 05:02:30;;;;;;;;;;;16.80;68.00;;;;;;5013091;28;88026;-46
2023/05/29 05:04:56;;;;;;;;;;;16.80;68.00;;;;;;5006323;28;88409;-45
2023/05/29 05:07:22;;;;;;;;;;;16.80;68.00;;;;;;5012792;28;87193;-45
2023/05/29 05:09:47;;;;;;;;;;;16.90;68.00;;;;;;5009650;28;87512;-44
2023/05/29 05:12:13;;;;;;;;;;;16.80;68.10;;;;;;5012305;28;88128;-45
2023/05/29 05:14:38;;;;;;;;;;;16.80;67.90;;;;;;5020086;28;87504;-44
2023/05/29 05:17:04;;;;;;;;;;;16.80;67.90;;;;;;5012702;28;87986;-45
2023/05/29 05:19:30;;;;;;;;;;;16.80;68.00;;;;;;5008411;28;86556;-44
2023/05/29 05:21:55;;;;;;;;;;;16.90;68.00;;;;;;5011356;28;87204;-44
2023/05/29 05:24:21;;;;;;;;;;;16.80;68.00;;;;;;5009883;28;88147;-45
2023/05/29 05:26:46;;;;;;;;;;;16.90;68.10;;;;;;5009974;28;88142;-44
2023/05/29 05:29:13;;;;;;;;;;;16.80;68.10;;;;;;5012618;28;88403;-45
2023/05/29 05:31:39;;;;;;;;;;;16.90;68.00;;;;;;5006587;28;87996;-44
2023/05/29 05:34:04;;;;;;;;;;;16.80;68.10;;;;;;5009030;28;87237;-45
2023/05/29 05:36:31;;;;;;;;;;;16.80;68.80;;;;;;5015825;28;87203;-44
2023/05/29 05:38:56;;;;;;;;;;;16.80;68.10;;;;;;5009232;28;87133;-45
2023/05/29 05:41:22;;;;;;;;;;;16.80;68.10;;;;;;5010541;28;87479;-46
2023/05/29 05:43:47;;;;;;;;;;;16.80;68.10;;;;;;5010240;28;87392;-45
2023/05/29 05:46:13;;;;;;;;;;;16.80;68.10;;;;;;5011576;28;87177;-47
2023/05/29 05:48:39;;;;;;;;;;;16.80;68.20;;;;;;5010353;28;87675;-44
2023/05/29 05:51:05;;;;;;;;;;;16.80;68.30;;;;;;5004584;28;89306;-46
2023/05/29 05:53:30;;;;;;;;;;;16.80;68.10;;;;;;5010732;28;87103;-45
2023/05/29 05:55:56;;;;;;;;;;;16.80;68.10;;;;;;5011323;28;87650;-46
2023/05/29 05:58:21;;;;;;;;;;;16.80;68.90;;;;;;5017761;28;87482;-46
2023/05/29 06:00:47;;;;;;;;;;;16.80;68.30;;;;;;5006333;28;88572;-47
2023/05/29 06:03:12;;;;;;;;;;;16.80;68.40;;;;;;5011739;28;87396;-46
2023/05/29 06:05:40;;;;;;;;;;;16.80;68.40;;;;;;5013235;28;87977;-46
2023/05/29 06:08:08;;;;;;;;;;;16.80;68.50;;;;;;5010386;28;89360;-45
2023/05/29 06:10:33;;;;;;;;;;;16.80;68.40;;;;;;5008980;28;88099;-44
2023/05/29 06:12:59;;;;;;;;;;;16.80;68.50;;;;;;5011407;28;87198;-46
2023/05/29 06:15:24;;;;;;;;;;;16.90;68.50;;;;;;5012213;28;87831;-46
2023/05/29 06:17:51;;;;;;;;;;;16.90;68.50;;;;;;4993585;28;91131;-46
2023/05/29 06:20:17;;;;;;;;;;;16.90;68.50;;;;;;5011442;28;87372;-45
2023/05/29 06:22:42;;;;;;;;;;;16.90;68.40;;;;;;5012112;28;88105;-46
2023/05/29 06:25:09;;;;;;;;;;;16.90;68.50;;;;;;5015001;28;87171;-46
2023/05/29 06:27:35;;;;;;;;;;;16.90;68.50;;;;;;5014066;28;88752;-47
2023/05/29 06:30:00;;;;;;;;;;;16.90;68.60;;;;;;5012161;28;88109;-45
2023/05/29 06:32:28;;;;;;;;;;;16.90;68.60;;;;;;5016476;28;86592;-46
2023/05/29 06:34:53;;;;;;;;;;;16.90;68.70;;;;;;5014211;28;87072;-45
2023/05/29 06:37:19;;;;;;;;;;;16.90;68.80;;;;;;5013325;28;88247;-46
2023/05/29 06:39:45;;;;;;;;;;;16.90;68.90;;;;;;5016255;28;88110;-47
2023/05/29 06:42:10;;;;;;;;;;;16.90;68.80;;;;;;5013729;28;88027;-46
2023/05/29 06:44:36;;;;;;;;;;;16.90;69.00;;;;;;5014210;28;87546;-46
2023/05/29 06:47:01;;;;;;;;;;;16.90;69.00;;;;;;5015927;28;87024;-45
2023/05/29 06:49:27;;;;;;;;;;;16.90;69.00;;;;;;5012600;28;88246;-45
2023/05/29 06:51:52;;;;;;;;;;;16.90;69.00;;;;;;5014627;28;87120;-45
2023/05/29 06:54:18;;;;;;;;;;;16.90;68.90;;;;;;5015066;28;87606;-46
2023/05/29 06:56:43;;;;;;;;;;;16.90;68.80;;;;;;5013071;28;86589;-46
2023/05/29 06:59:09;;;;;;;;;;;16.90;68.90;;;;;;5014785;28;87540;-46
2023/05/29 07:01:35;;;;;;;;;;;16.90;69.00;;;;;;5017351;28;87379;-45
2023/05/29 07:04:00;;;;;;;;;;;16.90;68.80;;;;;;5011417;28;87994;-46
2023/05/29 07:06:26;;;;;;;;;;;16.90;68.70;;;;;;5014567;28;88767;-45
2023/05/29 07:08:51;;;;;;;;;;;16.90;68.90;;;;;;5012762;28;88207;-46
2023/05/29 07:11:17;;;;;;;;;;;16.90;68.70;;;;;;5014754;28;87027;-46
2023/05/29 07:13:42;;;;;;;;;;;16.90;68.70;;;;;;5011413;28;87585;-47
2023/05/29 07:16:08;;;;;;;;;;;16.90;68.70;;;;;;5013741;28;88217;-45
2023/05/29 07:18:33;;;;;;;;;;;17.00;68.80;;;;;;5013608;28;86994;-46
2023/05/29 07:21:00;;;;;;;;;;;17.00;68.70;;;;;;5012324;28;87403;-46
2023/05/29 07:23:25;;;;;;;;;;;17.00;68.80;;;;;;5017002;28;87982;-45
2023/05/29 07:25:51;;;;;;;;;;;17.00;68.70;;;;;;5012526;28;88682;-45
2023/05/29 07:28:16;;;;;;;;;;;17.00;68.90;;;;;;5009926;28;89228;-46
2023/05/29 07:30:42;;;;;;;;;;;17.00;69.00;;;;;;5014170;28;87238;-46
2023/05/29 07:33:07;;;;;;;;;;;17.00;68.90;;;;;;5013498;28;87955;-46
2023/05/29 07:35:33;;;;;;;;;;;17.00;68.90;;;;;;5012156;28;87438;-46
2023/05/29 07:37:59;;;;;;;;;;;17.00;68.80;;;;;;5014840;28;87561;-47
2023/05/29 07:40:25;;;;;;;;;;;17.00;69.00;;;;;;5013908;28;87677;-45
2023/05/29 07:42:50;;;;;;;;;;;17.00;68.90;;;;;;5013240;28;87117;-46
2023/05/29 07:45:16;;;;;;;;;;;17.00;69.00;;;;;;5015400;28;86325;-47
2023/05/29 07:47:41;;;;;;;;;;;17.00;69.30;;;;;;5010544;28;88520;-46
2023/05/29 07:50:08;;;;;;;;;;;17.00;69.00;;;;;;5013107;28;87070;-46
2023/05/29 07:52:33;;;;;;;;;;;17.00;69.30;;;;;;5012829;28;89771;-45
2023/05/29 07:54:59;;;;;;;;;;;17.00;69.40;;;;;;5010456;28;88248;-45
2023/05/29 07:57:25;;;;;;;;;;;17.00;69.40;;;;;;5013411;28;87089;-46
2023/05/29 07:59:50;;;;;;;;;;;17.00;69.80;;;;;;5013550;28;89579;-45
2023/05/29 08:02:16;;;;;;;;;;;17.00;69.40;;;;;;5011210;28;88327;-46
2023/05/29 08:04:42;;;;;;;;;;;17.00;69.30;;;;;;5014043;28;87640;-46
2023/05/29 08:07:08;;;;;;;;;;;17.00;69.40;;;;;;5012318;28;87290;-46
2023/05/29 08:09:35;;;;;;;;;;;17.00;69.40;;;;;;5012869;28;86354;-45
2023/05/29 08:12:00;;;;;;;;;;;17.00;69.30;;;;;;5008898;28;88131;-46
2023/05/29 08:14:26;;;;;;;;;;;17.00;69.40;;;;;;5011849;28;88041;-46
2023/05/29 08:16:52;;;;;;;;;;;17.00;69.50;;;;;;5012204;28;88024;-46
2023/05/29 08:19:17;;;;;;;;;;;17.00;69.60;;;;;;5010753;28;88557;-46
2023/05/29 08:21:43;;;;;;;;;;;17.00;69.30;;;;;;5011890;28;88232;-45
2023/05/29 08:24:08;;;;;;;;;;;17.00;69.40;;;;;;5012593;28;87125;-46
2023/05/29 08:26:34;;;;;;;;;;;17.00;69.40;;;;;;5015746;28;87978;-46
2023/05/29 08:29:00;;;;;;;;;;;17.00;69.40;;;;;;5010976;28;86982;-45
2023/05/29 08:31:26;;;;;;;;;;;17.00;69.40;;;;;;5011959;28;87470;-45
2023/05/29 08:33:52;;;;;;;;;;;17.00;69.40;;;;;;5013336;28;87330;-45
2023/05/29 08:36:20;;;;;;;;;;;17.00;69.50;;;;;;5010361;28;87433;-46
2023/05/29 08:38:46;;;;;;;;;;;17.00;69.40;;;;;;5011599;28;87524;-45
2023/05/29 08:41:15;;;;;;;;;;;17.00;69.60;;;;;;5012909;28;89083;-46
2023/05/29 08:43:41;;;;;;;;;;;17.00;69.60;;;;;;5010203;28;87498;-46
2023/05/29 08:46:07;;;;;;;;;;;17.00;69.70;;;;;;5012064;28;87733;-47
2023/05/29 08:48:32;;;;;;;;;;;17.10;69.70;;;;;;5015179;28;88087;-45
2023/05/29 08:50:58;;;;;;;;;;;17.10;69.90;;;;;;5009465;28;87451;-46
2023/05/29 08:53:24;;;;;;;;;;;17.10;69.90;;;;;;5011452;28;88023;-45
2023/05/29 08:55:52;;;;;;;;;;;17.10;69.90;;;;;;5012131;28;87159;-46
2023/05/29 08:58:21;;;;;;;;;;;17.10;69.80;;;;;;4994213;28;90758;-46
2023/05/29 09:00:47;;;;;;;;;;;17.10;69.90;;;;;;5010278;28;88230;-45
2023/05/29 09:03:13;;;;;;;;;;;17.10;69.90;;;;;;5009422;28;87139;-46
2023/05/29 09:05:40;;;;;;;;;;;17.20;69.90;;;;;;5011198;28;88012;-46
2023/05/29 09:08:07;;;;;;;;;;;17.20;69.80;;;;;;5009933;28;88015;-47
2023/05/29 09:10:32;;;;;;;;;;;17.20;69.90;;;;;;5015817;28;87143;-46
2023/05/29 09:12:58;;;;;;;;;;;17.20;69.90;;;;;;5008960;28;88369;-46
2023/05/29 09:15:24;;;;;;;;;;;17.20;70.00;;;;;;5010859;28;87651;-47
2023/05/29 09:17:53;;;;;;;;;;;17.20;70.10;;;;;;5010792;28;87442;-45
2023/05/29 09:20:22;;;;;;;;;;;17.20;69.90;;;;;;5008801;28;88061;-46
2023/05/29 09:22:54;;;;;;;;;;;17.20;70.00;;;;;;5010994;28;86554;-46
2023/05/29 09:25:22;;;;;;;;;;;17.30;70.10;;;;;;5012304;28;87078;-46
2023/05/29 09:27:50;;;;;;;;;;;17.20;70.00;;;;;;5009553;28;88040;-45
2023/05/29 09:30:30;;;;;;;;;;;17.30;70.00;;;;;;5011000;28;87992;-45
2023/05/29 09:32:56;;;;;;;;;;;17.30;70.00;;;;;;5013348;28;88471;-45
2023/05/29 09:35:22;;;;;;;;;;;17.30;70.00;;;;;;5009620;28;87608;-45
2023/05/29 09:37:47;;;;;;;;;;;17.30;70.10;;;;;;5009406;28;88031;-46
2023/05/29 09:40:13;;;;;;;;;;;17.30;69.80;;;;;;5010433;28;88256;-46
2023/05/29 09:42:39;;;;;;;;;;;17.30;69.90;;;;;;5010598;28;87097;-46
2023/05/29 09:45:04;;;;;;;;;;;17.30;70.00;;;;;;5008966;28;88104;-45
2023/05/29 09:47:33;;;;;;;;;;;17.30;70.00;;;;;;5010833;28;87419;-46
2023/05/29 09:50:00;;;;;;;;;;;17.30;69.90;;;;;;5010483;28;87187;-46
2023/05/29 09:52:25;;;;;;;;;;;17.30;70.00;;;;;;5010674;28;87347;-45
2023/05/29 09:54:52;;;;;;;;;;;17.30;69.90;;;;;;5016043;28;88838;-46
2023/05/29 09:57:18;;;;;;;;;;;17.40;69.90;;;;;;5014160;28;88722;-46
2023/05/29 09:59:45;;;;;;;;;;;17.40;69.90;;;;;;5014928;28;88866;-46
2023/05/29 10:02:12;;;;;;;;;;;17.40;69.90;;;;;;5012844;28;87140;-46
2023/05/29 10:04:39;;;;;;;;;;;17.40;69.80;;;;;;5013479;28;87383;-46
2023/05/29 10:07:11;;;;;;;;;;;17.40;69.70;;;;;;5014861;28;88162;-46
2023/05/29 10:09:42;;;;;;;;;;;17.40;69.80;;;;;;5013597;28;87162;-46
2023/05/29 10:12:08;;;;;;;;;;;17.40;69.70;;;;;;5013696;28;87393;-46
2023/05/29 10:14:34;;;;;;;;;;;17.40;69.70;;;;;;5012168;28;88108;-46
2023/05/29 10:17:03;;;;;;;;;;;17.40;69.70;;;;;;5016604;28;87376;-45
2023/05/29 10:19:30;;;;;;;;;;;17.40;69.70;;;;;;5013303;28;90717;-45
2023/05/29 10:21:57;;;;;;;;;;;17.50;69.80;;;;;;5012602;28;87197;-45
2023/05/29 10:24:22;;;;;;;;;;;17.50;69.80;;;;;;5012718;28;88899;-45
2023/05/29 10:26:50;;;;;;;;;;;17.50;69.70;;;;;;5013976;28;88198;-47
2023/05/29 10:29:21;;;;;;;;;;;17.50;69.70;;;;;;5012936;28;87484;-45
2023/05/29 10:31:53;;;;;;;;;;;17.50;69.70;;;;;;5011589;28;88984;-46
2023/05/29 10:34:25;;;;;;;;;;;17.50;69.70;;;;;;5012776;28;88189;-45
2023/05/29 10:36:59;;;;;;;;;;;17.50;69.70;;;;;;5015540;28;86306;-45
2023/05/29 10:39:25;;;;;;;;;;;17.50;69.70;;;;;;5012613;28;87027;-46
2023/05/29 10:41:51;;;;;;;;;;;17.60;69.60;;;;;;5014479;28;87147;-45
2023/05/29 10:44:32;;;;;;;;;;;17.60;69.60;;;;;;5011927;28;88463;-46
2023/05/29 10:47:05;;;;;;;;;;;17.60;69.70;;;;;;5012566;28;87103;-47
2023/05/29 10:49:31;;;;;;;;;;;17.60;69.70;;;;;;5013513;28;87126;-45
2023/05/29 10:51:57;;;;;;;;;;;17.60;69.60;;;;;;5014081;28;87361;-45
2023/05/29 10:54:23;;;;;;;;;;;17.60;69.50;;;;;;5011951;28;88678;-47
2023/05/29 10:56:55;;;;;;;;;;;17.70;69.50;;;;;;5013626;28;87767;-46
2023/05/29 10:59:20;;;;;;;;;;;17.70;69.50;;;;;;5013756;28;87339;-46
2023/05/29 11:01:45;;;;;;;;;;;17.70;69.60;;;;;;5015642;28;86318;-46
2023/05/29 11:04:15;;;;;;;;;;;17.70;69.60;;;;;;5011531;28;87027;-45
2023/05/29 11:06:41;;;;;;;;;;;17.70;69.60;;;;;;4992962;28;89363;-45
2023/05/29 11:09:25;;;;;;;;;;;17.70;69.60;;;;;;5014556;28;88053;-46
2023/05/29 11:12:10;;;;;;;;;;;17.70;69.60;;;;;;5012401;28;88357;-45
2023/05/29 11:14:47;;;;;;;;;;;17.70;69.50;;;;;;5013675;28;89088;-47
2023/05/29 11:17:31;;;;;;;;;;;17.70;69.60;;;;;;5014745;28;87373;-45
2023/05/29 11:19:57;;;;;;;;;;;17.70;69.50;;;;;;4996255;28;89223;-46
2023/05/29 11:22:26;;;;;;;;;;;17.70;69.50;;;;;;5014183;28;87637;-46
2023/05/29 11:24:53;;;;;;;;;;;17.80;69.50;;;;;;4995270;28;90965;-46
2023/05/29 11:27:18;;;;;;;;;;;17.80;69.50;;;;;;5015084;28;87335;-46
2023/05/29 11:29:45;;;;;;;;;;;17.80;69.40;;;;;;5012466;28;88108;-45
2023/05/29 11:32:14;;;;;;;;;;;17.80;69.30;;;;;;5012177;28;87025;-46
2023/05/29 11:34:41;;;;;;;;;;;17.80;69.30;;;;;;5010079;28;89144;-46
2023/05/29 11:37:06;;;;;;;;;;;17.90;69.30;;;;;;5012876;28;87172;-46
2023/05/29 11:39:35;;;;;;;;;;;17.90;69.20;;;;;;5012818;28;87537;-48
2023/05/29 11:42:01;;;;;;;;;;;17.90;69.10;;;;;;5010218;28;88134;-46
2023/05/29 11:44:27;;;;;;;;;;;17.90;68.90;;;;;;5016571;28;87146;-46
2023/05/29 11:47:00;;;;;;;;;;;17.90;69.00;;;;;;5011557;28;88182;-46
2023/05/29 11:49:30;;;;;;;;;;;17.90;69.00;;;;;;5013814;28;87250;-46
2023/05/29 11:52:05;;;;;;;;;;;18.00;68.90;;;;;;5012856;28;88549;-45
2023/05/29 11:54:30;;;;;;;;;;;18.00;68.80;;;;;;5011709;28;87250;-45
2023/05/29 11:56:56;;;;;;;;;;;18.00;68.80;;;;;;5013536;28;87194;-45
2023/05/29 11:59:21;;;;;;;;;;;18.00;68.70;;;;;;5013318;28;88877;-46
2023/05/29 12:01:48;;;;;;;;;;;18.10;69.30;;;;;;5014433;28;87416;-45
2023/05/29 12:04:14;;;;;;;;;;;18.10;68.80;;;;;;4993500;28;87661;-46
2023/05/29 12:06:42;;;;;;;;;;;18.00;68.80;;;;;;5014926;28;87419;-45
2023/05/29 12:09:07;;;;;;;;;;;18.10;68.80;;;;;;5014131;28;87108;-46
2023/05/29 12:11:34;;;;;;;;;;;18.10;68.70;;;;;;5012562;28;87773;-46
2023/05/29 12:14:00;;;;;;;;;;;18.00;68.60;;;;;;5012686;28;88080;-46
2023/05/29 12:16:27;;;;;;;;;;;18.10;68.70;;;;;;5012026;28;87303;-46
2023/05/29 12:18:53;;;;;;;;;;;18.10;68.60;;;;;;5013791;28;87110;-45
2023/05/29 12:21:19;;;;;;;;;;;18.10;68.70;;;;;;5012805;28;88229;-46
2023/05/29 12:23:45;;;;;;;;;;;18.10;68.70;;;;;;5010804;28;87980;-45
2023/05/29 12:26:11;;;;;;;;;;;18.10;68.70;;;;;;5016355;28;88637;-46
2023/05/29 12:28:41;;;;;;;;;;;18.10;68.50;;;;;;5012020;28;88856;-46
2023/05/29 12:31:07;;;;;;;;;;;18.20;68.70;;;;;;5014362;28;87659;-44
2023/05/29 12:33:33;;;;;;;;;;;18.20;68.60;;;;;;5010652;28;87975;-45
2023/05/29 12:36:03;;;;;;;;;;;18.20;68.60;;;;;;5011820;28;87637;-47
2023/05/29 12:38:30;;;;;;;;;;;18.20;68.50;;;;;;5013265;28;87064;-47
2023/05/29 12:40:55;;;;;;;;;;;18.20;69.00;;;;;;5010507;28;87394;-45
2023/05/29 12:43:21;;;;;;;;;;;18.30;68.30;;;;;;5011453;28;87137;-46
2023/05/29 12:45:53;;;;;;;;;;;18.30;68.30;;;;;;5012485;28;87726;-45
2023/05/29 12:48:21;;;;;;;;;;;18.30;68.30;;;;;;5012871;28;89120;-46
2023/05/29 12:50:48;;;;;;;;;;;18.40;68.30;;;;;;5009385;28;88250;-46
2023/05/29 12:53:15;;;;;;;;;;;18.30;68.40;;;;;;5008952;28;88324;-46
2023/05/29 12:55:41;;;;;;;;;;;18.30;68.50;;;;;;5010775;28;87090;-45
2023/05/29 12:58:13;;;;;;;;;;;18.30;68.70;;;;;;5011846;28;87980;-47
2023/05/29 13:00:39;;;;;;;;;;;18.30;69.00;;;;;;5010360;28;88049;-46
2023/05/29 13:03:05;;;;;;;;;;;18.30;69.20;;;;;;5010350;28;87101;-45
2023/05/29 13:05:31;;;;;;;;;;;18.40;69.40;;;;;;5012585;28;87458;-45
2023/05/29 13:07:57;;;;;;;;;;;18.30;69.40;;;;;;5009112;28;87987;-45
2023/05/29 13:10:23;;;;;;;;;;;18.30;69.60;;;;;;5013302;28;87147;-48
2023/05/29 13:12:54;;;;;;;;;;;18.30;69.60;;;;;;5010965;28;89066;-45
2023/05/29 13:15:20;;;;;;;;;;;18.30;69.70;;;;;;5011737;28;87107;-45
2023/05/29 13:17:46;;;;;;;;;;;18.30;69.70;;;;;;5011695;28;87033;-45
2023/05/29 13:20:12;;;;;;;;;;;18.30;70.00;;;;;;5009740;28;88039;-45
2023/05/29 13:22:39;;;;;;;;;;;18.30;69.90;;;;;;5012162;28;87088;-48
2023/05/29 13:25:06;;;;;;;;;;;18.30;70.00;;;;;;5010796;28;87435;-46
2023/05/29 13:27:32;;;;;;;;;;;18.30;69.60;;;;;;5007737;28;88054;-45
2023/05/29 13:29:57;;;;;;;;;;;18.30;69.60;;;;;;5012381;28;86558;-45
2023/05/29 13:32:23;;;;;;;;;;;18.30;69.40;;;;;;5013314;28;87518;-45
2023/05/29 13:34:48;;;;;;;;;;;18.30;69.40;;;;;;5011855;28;87412;-45
2023/05/29 13:37:14;;;;;;;;;;;18.40;69.40;;;;;;5007745;28;88595;-45
2023/05/29 13:39:39;;;;;;;;;;;18.30;69.50;;;;;;5009191;28;88269;-45
2023/05/29 13:42:06;;;;;;;;;;;18.40;69.30;;;;;;5009885;28;87760;-45
2023/05/29 13:44:31;;;;;;;;;;;18.40;69.70;;;;;;5010678;28;87505;-45
2023/05/29 13:46:57;;;;;;;;;;;18.40;69.70;;;;;;5008619;28;88252;-46
2023/05/29 13:49:22;;;;;;;;;;;18.40;69.60;;;;;;5010442;28;87734;-45
2023/05/29 13:51:48;;;;;;;;;;;18.40;69.60;;;;;;5012677;28;87625;-46
2023/05/29 13:54:15;;;;;;;;;;;18.40;69.50;;;;;;5012166;28;86568;-45
2023/05/29 13:56:41;;;;;;;;;;;18.40;69.60;;;;;;5010873;28;87568;-46
2023/05/29 13:59:07;;;;;;;;;;;18.40;69.50;;;;;;5011204;28;88216;-45
2023/05/29 14:01:33;;;;;;;;;;;18.40;69.70;;;;;;5010450;28;88030;-46
2023/05/29 14:03:58;;;;;;;;;;;18.50;69.70;;;;;;5010847;28;88613;-46
2023/05/29 14:06:24;;;;;;;;;;;18.50;69.70;;;;;;5010172;28;87835;-46
2023/05/29 14:08:49;;;;;;;;;;;18.50;69.60;;;;;;5012525;28;87142;-46
2023/05/29 14:11:15;;;;;;;;;;;18.50;69.80;;;;;;5010344;28;87461;-45
2023/05/29 14:13:41;;;;;;;;;;;18.50;69.70;;;;;;5010383;28;87969;-46